Time;durP1;ratioP1;P1;durP2;ratioP2;P2;SDS_P1;SDS_P2;PMS_P1;PMS_P2;Temp;Humidity;BMP_temperature;BMP_pressure;BME280_temperature;BME280_humidity;BME280_pressure;Samples;Min_cycle;Max_cycle;Signal;HPM_P1;HPM_P2
2023/06/29 00:00:34;;;;;;;16.50;12.50;;;;;;;15.85;95.02;99896.83;131422;1252;106673;-84
2023/06/29 00:04:00;;;;;;;12.70;11.40;;;;;;;15.80;94.65;99895.63;131703;1253;110493;-82
2023/06/29 00:07:06;;;;;;;14.70;11.80;;;;;;;15.79;94.28;99890.24;132012;1263;107509;-83
2023/06/29 00:10:13;;;;;;;13.20;11.20;;;;;;;15.78;95.05;99895.61;131486;1263;107559;-82
2023/06/29 00:13:19;;;;;;;18.90;12.10;;;;;;;15.71;94.53;99898.06;131207;1254;108623;-81
2023/06/29 00:16:24;;;;;;;13.50;11.00;;;;;;;15.65;96.09;99900.15;131145;1254;108653;-80
2023/06/29 00:19:30;;;;;;;12.80;11.40;;;;;;;15.64;94.41;99903.02;131353;1252;105747;-80
2023/06/29 00:22:36;;;;;;;12.80;10.90;;;;;;;15.61;94.83;99903.27;131082;1263;107900;-81
2023/06/29 00:25:46;;;;;;;14.50;11.30;;;;;;;15.59;94.68;99901.77;131097;1254;108752;-81
2023/06/29 00:28:52;;;;;;;14.20;11.30;;;;;;;15.57;94.80;99904.20;131156;1254;107526;-80
2023/06/29 00:31:58;;;;;;;14.40;12.00;;;;;;;15.54;94.15;99904.88;131204;1252;106780;-80
2023/06/29 00:35:04;;;;;;;15.70;11.20;;;;;;;15.51;94.93;99909.70;131367;1263;107522;-79
2023/06/29 00:38:11;;;;;;;13.60;9.60;;;;;;;15.46;94.23;99906.17;131461;1253;107437;-78
2023/06/29 00:41:17;;;;;;;12.50;10.60;;;;;;;15.48;93.93;99905.27;131421;1253;105877;-80
2023/06/29 00:44:25;;;;;;;12.60;10.00;;;;;;;15.48;93.92;99904.73;131439;1254;107505;-79
2023/06/29 00:47:32;;;;;;;12.80;11.30;;;;;;;15.48;93.93;99904.23;131500;1253;107514;-79
2023/06/29 00:50:40;;;;;;;12.50;9.30;;;;;;;15.45;93.56;99902.40;131148;1257;107506;-79
2023/06/29 00:53:46;;;;;;;13.20;10.20;;;;;;;15.47;93.13;99895.91;131349;1261;107436;-79
2023/06/29 00:56:52;;;;;;;13.20;10.00;;;;;;;15.53;92.86;99895.84;131508;1254;107505;-79
2023/06/29 01:00:00;;;;;;;10.90;9.60;;;;;;;15.57;92.92;99893.80;131197;1248;107435;-79
2023/06/29 01:03:11;;;;;;;13.20;10.60;;;;;;;15.57;92.62;99895.34;131204;1261;107703;-79
2023/06/29 01:06:24;;;;;;;11.60;10.30;;;;;;;15.54;93.23;99900.90;131373;1254;107608;-80
2023/06/29 01:09:31;;;;;;;12.40;10.20;;;;;;;15.45;92.64;99895.95;131342;1255;108446;-80
2023/06/29 01:12:38;;;;;;;13.00;10.40;;;;;;;15.43;92.78;99894.64;131494;1252;107266;-80
2023/06/29 01:15:46;;;;;;;12.50;10.10;;;;;;;15.39;92.90;99892.63;131465;1263;106565;-80
2023/06/29 01:18:53;;;;;;;11.90;9.90;;;;;;;15.38;92.79;99890.91;131264;1254;107603;-80
2023/06/29 01:22:04;;;;;;;16.30;11.10;;;;;;;15.36;93.22;99892.47;131235;1254;107485;-80
2023/06/29 01:25:12;;;;;;;10.90;9.50;;;;;;;15.29;92.89;99893.44;131435;1251;107534;-81
2023/06/29 01:28:19;;;;;;;11.60;10.30;;;;;;;15.22;93.59;99895.20;131271;1253;107533;-80
2023/06/29 01:31:26;;;;;;;14.50;10.90;;;;;;;15.17;93.23;99901.40;131258;1264;107622;-80
2023/06/29 01:34:35;;;;;;;13.40;11.20;;;;;;;15.13;92.87;99898.04;131238;1254;107446;-80
2023/06/29 01:37:46;;;;;;;14.00;10.10;;;;;;;15.07;92.87;99899.39;131436;1253;106524;-80
2023/06/29 01:40:58;;;;;;;11.00;9.40;;;;;;;15.05;92.98;99898.09;131270;1263;107520;-79
2023/06/29 01:44:08;;;;;;;10.70;9.50;;;;;;;15.04;92.90;99896.77;131484;1251;107513;-79
2023/06/29 01:47:15;;;;;;;13.30;11.00;;;;;;;15.06;93.61;99895.48;131215;1257;107244;-78
2023/06/29 01:50:22;;;;;;;15.30;11.00;;;;;;;15.00;93.41;99896.23;131107;1253;107517;-78
2023/06/29 01:53:27;;;;;;;14.60;9.90;;;;;;;14.97;94.41;99893.95;131202;1264;107284;-79
2023/06/29 01:56:33;;;;;;;14.00;10.00;;;;;;;14.91;93.46;99892.98;131314;1251;107514;-80
2023/06/29 01:59:39;;;;;;;13.00;9.90;;;;;;;14.87;93.55;99896.25;131159;1255;108586;-80
2023/06/29 02:02:45;;;;;;;11.90;10.50;;;;;;;14.83;93.92;99894.59;131310;1254;105637;-77
2023/06/29 02:05:51;;;;;;;12.60;10.30;;;;;;;14.83;93.56;99894.01;131150;1254;107580;-77
2023/06/29 02:08:56;;;;;;;15.60;10.50;;;;;;;14.81;93.38;99894.03;131275;1263;107522;-77
2023/06/29 02:12:02;;;;;;;13.30;9.70;;;;;;;14.78;93.34;99894.95;131297;1260;106696;-77
2023/06/29 02:15:09;;;;;;;15.40;10.80;;;;;;;14.77;93.52;99899.23;131152;1251;107369;-77
2023/06/29 02:18:14;;;;;;;11.80;10.50;;;;;;;14.73;93.38;99899.45;131100;1254;107452;-77
2023/06/29 02:21:20;;;;;;;12.50;10.20;;;;;;;14.75;93.13;99895.53;131102;1251;107537;-80
2023/06/29 02:24:25;;;;;;;14.10;10.00;;;;;;;14.76;92.89;99894.02;131653;1254;107155;-82
2023/06/29 02:27:31;;;;;;;17.50;9.80;;;;;;;14.75;93.27;99895.66;131592;1254;106690;-78
2023/06/29 02:30:37;;;;;;;11.30;9.50;;;;;;;14.73;92.95;99900.59;131069;1254;105776;-80
2023/06/29 02:33:44;;;;;;;12.50;10.90;;;;;;;14.75;92.87;99899.13;131477;1254;106786;-79
2023/06/29 02:36:49;;;;;;;14.40;10.90;;;;;;;14.76;93.03;99893.08;131383;1251;107317;-79
2023/06/29 02:39:55;;;;;;;11.70;9.80;;;;;;;14.76;92.86;99897.61;131312;1249;107494;-77
2023/06/29 02:43:01;;;;;;;12.40;9.50;;;;;;;14.72;92.96;99900.41;131305;1254;107484;-79
2023/06/29 02:46:06;;;;;;;12.60;9.90;;;;;;;14.68;92.79;99900.27;131340;1251;107514;-79
2023/06/29 02:49:14;;;;;;;12.00;9.90;;;;;;;14.74;92.66;99906.96;131181;1251;107548;-78
2023/06/29 02:52:20;;;;;;;12.70;10.70;;;;;;;14.78;92.56;99909.70;131159;1254;107632;-78
2023/06/29 02:55:27;;;;;;;10.70;8.90;;;;;;;14.80;92.75;99909.56;131133;1251;108840;-79
2023/06/29 02:58:32;;;;;;;12.30;9.90;;;;;;;14.82;92.46;99910.61;131310;1264;107209;-79
2023/06/29 03:01:40;;;;;;;11.10;9.10;;;;;;;14.88;92.57;99910.77;131501;1254;107505;-79
2023/06/29 03:04:46;;;;;;;12.40;9.90;;;;;;;14.93;92.20;99915.15;131074;1253;108019;-78
2023/06/29 03:07:52;;;;;;;13.40;10.10;;;;;;;15.01;92.05;99921.16;131121;1250;107552;-79
2023/06/29 03:10:57;;;;;;;11.40;9.60;;;;;;;15.04;92.09;99920.56;131624;1253;107251;-79
2023/06/29 03:14:03;;;;;;;13.90;9.50;;;;;;;15.10;92.09;99920.96;131197;1264;107331;-79
2023/06/29 03:17:08;;;;;;;12.20;9.20;;;;;;;15.19;91.94;99926.05;131025;1263;107241;-79
2023/06/29 03:20:15;;;;;;;11.40;8.80;;;;;;;15.37;91.92;99928.54;131284;1253;107371;-79
2023/06/29 03:23:20;;;;;;;12.80;9.80;;;;;;;15.57;91.73;99928.88;131325;1254;107516;-79
2023/06/29 03:26:26;;;;;;;13.50;8.40;;;;;;;15.72;91.33;99933.09;131249;1254;107251;-79
2023/06/29 03:29:32;;;;;;;9.90;7.80;;;;;;;15.91;91.27;99931.59;131368;1254;107516;-79
2023/06/29 03:32:37;;;;;;;9.50;8.30;;;;;;;16.20;91.19;99932.73;131343;1251;107427;-78
2023/06/29 03:35:43;;;;;;;11.40;9.00;;;;;;;16.47;90.55;99933.92;131310;1248;108072;-79
2023/06/29 03:38:48;;;;;;;11.00;8.90;;;;;;;16.65;90.07;99937.54;131349;1248;107467;-79
2023/06/29 03:41:54;;;;;;;10.70;8.90;;;;;;;16.78;89.68;99937.82;131431;1257;106598;-80
2023/06/29 03:45:00;;;;;;;12.30;8.20;;;;;;;16.83;89.10;99937.30;131511;1257;107451;-81
2023/06/29 03:48:06;;;;;;;12.60;8.50;;;;;;;16.96;89.41;99937.30;131568;1261;107216;-81
2023/06/29 03:51:11;;;;;;;13.00;9.00;;;;;;;17.12;89.06;99939.09;131518;1250;107289;-80
2023/06/29 03:54:17;;;;;;;10.10;9.00;;;;;;;17.25;88.76;99939.20;131522;1257;107465;-79
2023/06/29 03:57:22;;;;;;;10.80;8.30;;;;;;;17.32;88.27;99947.40;131554;1255;108801;-80
2023/06/29 04:00:28;;;;;;;10.40;8.30;;;;;;;17.42;88.48;99947.44;131261;1262;107587;-81
2023/06/29 04:03:34;;;;;;;11.20;9.00;;;;;;;17.53;87.91;99948.20;131268;1253;106166;-81
2023/06/29 04:06:39;;;;;;;10.90;8.80;;;;;;;17.59;87.91;99957.05;131209;1254;108258;-81
2023/06/29 04:09:45;;;;;;;12.20;8.70;;;;;;;17.54;87.97;99959.28;131102;1251;106432;-81
2023/06/29 04:12:50;;;;;;;15.30;10.40;;;;;;;17.46;87.70;99963.55;131322;1250;106381;-81
2023/06/29 04:15:56;;;;;;;12.80;9.40;;;;;;;17.41;87.28;99967.98;131238;1251;108471;-80
2023/06/29 04:19:01;;;;;;;10.60;8.90;;;;;;;17.37;87.93;99969.80;131233;1251;107247;-80
2023/06/29 04:22:07;;;;;;;11.70;9.80;;;;;;;17.39;87.91;99973.84;131226;1251;107504;-81
2023/06/29 04:25:13;;;;;;;11.40;8.90;;;;;;;17.36;87.69;99968.46;131189;1251;108081;-80
2023/06/29 04:28:19;;;;;;;11.70;9.30;;;;;;;17.32;87.91;99964.98;131254;1249;107666;-81
2023/06/29 04:31:24;;;;;;;11.40;9.10;;;;;;;17.23;88.04;99965.33;131206;1255;107365;-80
2023/06/29 04:34:30;;;;;;;13.30;9.90;;;;;;;17.31;88.18;99967.39;131222;1253;107477;-81
2023/06/29 04:37:40;;;;;;;12.60;9.30;;;;;;;17.44;88.26;99966.23;131464;1249;107528;-80
2023/06/29 04:40:46;;;;;;;12.80;10.10;;;;;;;17.76;88.50;99969.42;131206;1253;107474;-80
2023/06/29 04:43:53;;;;;;;9.10;7.80;;;;;;;18.05;87.38;99970.94;131279;1252;108959;-80
2023/06/29 04:46:59;;;;;;;9.70;8.70;;;;;;;18.29;86.75;99967.68;131409;1253;107595;-82
2023/06/29 04:50:05;;;;;;;9.50;8.40;;;;;;;18.44;86.91;99973.26;131589;1254;106563;-82
2023/06/29 04:53:12;;;;;;;10.00;8.00;;;;;;;18.64;86.60;99978.98;131333;1253;107586;-81
2023/06/29 04:56:18;;;;;;;10.20;8.40;;;;;;;18.85;86.19;99974.06;131429;1254;107457;-82
2023/06/29 04:59:25;;;;;;;9.80;7.70;;;;;;;18.84;83.45;99981.63;131528;1263;107547;-81
2023/06/29 05:02:31;;;;;;;9.60;7.80;;;;;;;18.74;84.84;99980.52;131434;1253;107525;-81
2023/06/29 05:05:36;;;;;;;9.60;8.40;;;;;;;18.78;84.01;99980.89;131464;1250;106401;-80
2023/06/29 05:08:42;;;;;;;10.90;8.20;;;;;;;18.74;83.58;99983.18;131451;1252;107502;-81
2023/06/29 05:11:47;;;;;;;10.70;8.10;;;;;;;18.76;84.44;99983.06;131387;1253;108119;-81
2023/06/29 05:14:53;;;;;;;10.60;7.80;;;;;;;18.88;84.67;99988.89;131266;1253;107362;-80
2023/06/29 05:17:59;;;;;;;9.40;7.40;;;;;;;18.91;83.36;99985.56;131225;1254;107387;-82
2023/06/29 05:21:05;;;;;;;8.80;8.00;;;;;;;18.87;83.31;99985.50;131174;1253;107304;-80
2023/06/29 05:24:11;;;;;;;10.10;8.20;;;;;;;18.97;83.83;99980.22;131269;1251;107580;-79
2023/06/29 05:27:16;;;;;;;9.70;8.70;;;;;;;19.14;83.86;99976.22;131344;1249;106530;-80
2023/06/29 05:30:22;;;;;;;14.50;8.50;;;;;;;19.16;82.80;99977.99;131201;1254;107270;-81
2023/06/29 05:33:27;;;;;;;9.50;7.60;;;;;;;19.27;83.54;99978.90;131193;1253;106979;-80
2023/06/29 05:36:33;;;;;;;9.00;8.00;;;;;;;19.25;81.84;99981.73;131192;1253;107244;-81
2023/06/29 05:39:38;;;;;;;8.10;7.30;;;;;;;19.30;83.20;99977.60;131393;1253;107644;-79
2023/06/29 05:42:44;;;;;;;8.40;7.40;;;;;;;19.42;81.54;99974.44;131357;1253;107457;-80
2023/06/29 05:45:49;;;;;;;9.10;8.10;;;;;;;19.36;81.48;99976.13;131198;1253;107516;-81
2023/06/29 05:48:55;;;;;;;9.80;7.30;;;;;;;19.37;81.89;99971.59;131326;1251;107511;-81
2023/06/29 05:52:00;;;;;;;9.00;6.90;;;;;;;19.39;81.93;99979.00;131370;1254;107530;-81
2023/06/29 05:55:07;;;;;;;10.10;7.80;;;;;;;19.37;81.33;99982.92;131460;1253;107417;-83
2023/06/29 05:58:12;;;;;;;8.90;7.50;;;;;;;19.40;81.72;99979.56;131358;1253;108755;-81
2023/06/29 06:01:18;;;;;;;9.60;8.60;;;;;;;19.47;81.41;99985.52;131348;1253;107658;-81
2023/06/29 06:04:24;;;;;;;9.90;8.60;;;;;;;19.53;82.09;99983.69;131511;1253;107524;-81
2023/06/29 06:07:31;;;;;;;9.80;8.80;;;;;;;19.58;81.46;99986.15;131316;1253;107594;-81
2023/06/29 06:10:36;;;;;;;10.20;9.20;;;;;;;19.59;81.99;99989.69;131361;1252;107465;-81
2023/06/29 06:13:42;;;;;;;9.40;8.50;;;;;;;19.72;81.88;99992.02;131562;1254;106767;-81
2023/06/29 06:16:48;;;;;;;12.20;9.70;;;;;;;19.90;80.80;99998.73;131548;1252;107431;-81
2023/06/29 06:19:53;;;;;;;10.90;9.90;;;;;;;19.83;80.02;100001.66;131456;1253;107469;-81
2023/06/29 06:22:59;;;;;;;11.60;10.40;;;;;;;19.67;80.19;99998.75;131250;1251;107368;-81
2023/06/29 06:26:04;;;;;;;11.30;10.30;;;;;;;19.71;81.08;99996.19;131132;1253;107193;-80
2023/06/29 06:29:10;;;;;;;11.60;9.60;;;;;;;19.86;80.58;100001.88;131279;1254;106894;-82
2023/06/29 06:32:16;;;;;;;9.70;8.60;;;;;;;19.90;80.10;100005.73;131234;1253;106568;-81
2023/06/29 06:35:21;;;;;;;10.70;9.60;;;;;;;20.02;81.18;100002.39;131402;1251;107247;-81
2023/06/29 06:38:27;;;;;;;11.10;10.10;;;;;;;20.20;80.99;100005.45;131468;1253;107614;-81
2023/06/29 06:41:32;;;;;;;11.50;10.40;;;;;;;20.30;80.57;100011.88;131193;1253;106483;-81
2023/06/29 06:44:51;;;;;;;11.20;10.10;;;;;;;20.28;79.54;100014.73;131223;1251;107513;-81
2023/06/29 06:47:56;;;;;;;13.40;10.10;;;;;;;20.22;79.79;100011.80;131224;1253;107380;-81
2023/06/29 06:51:02;;;;;;;10.30;9.20;;;;;;;20.16;78.96;100007.48;131426;1253;106181;-81
2023/06/29 06:54:08;;;;;;;10.80;9.70;;;;;;;20.15;79.85;100012.02;131279;1251;106259;-81
2023/06/29 06:57:13;;;;;;;12.20;10.70;;;;;;;20.19;79.31;100010.23;131309;1253;107521;-81
2023/06/29 07:00:20;;;;;;;11.20;9.90;;;;;;;20.17;78.80;100007.25;131423;1254;107539;-81
2023/06/29 07:03:26;;;;;;;10.50;9.30;;;;;;;20.08;79.23;100010.09;131406;1253;107346;-81
2023/06/29 07:06:33;;;;;;;10.80;8.80;;;;;;;20.13;79.70;100007.86;131242;1253;109099;-80
2023/06/29 07:09:40;;;;;;;10.90;8.80;;;;;;;20.23;79.77;100003.33;131156;1251;107460;-81
2023/06/29 07:12:46;;;;;;;13.10;8.90;;;;;;;20.36;79.21;100005.23;131348;1253;106534;-81
2023/06/29 07:15:51;;;;;;;11.40;9.40;;;;;;;20.44;78.73;100007.54;131474;1252;107452;-81
2023/06/29 07:19:08;;;;;;;10.10;9.10;;;;;;;20.43;78.93;100005.39;131235;1264;107529;-81
2023/06/29 07:22:13;;;;;;;12.40;9.90;;;;;;;20.53;79.04;99998.07;131217;1253;107519;-80
2023/06/29 07:25:19;;;;;;;10.60;8.80;;;;;;;20.59;78.08;100000.06;131452;1253;107520;-81
2023/06/29 07:28:25;;;;;;;11.00;9.30;;;;;;;20.61;78.48;99997.41;131503;1253;107498;-81
2023/06/29 07:31:31;;;;;;;11.00;9.50;;;;;;;20.65;78.27;99996.34;131441;1254;107550;-81
2023/06/29 07:34:36;;;;;;;11.40;8.70;;;;;;;20.69;78.45;99996.63;131200;1253;107637;-81
2023/06/29 07:37:42;;;;;;;11.10;8.60;;;;;;;20.66;76.12;99999.05;131280;1252;107412;-81
2023/06/29 07:40:47;;;;;;;10.60;9.30;;;;;;;20.51;76.10;99998.59;131401;1253;108740;-81
2023/06/29 07:43:56;;;;;;;10.70;8.60;;;;;;;20.48;77.55;99997.21;131291;1253;106269;-80
2023/06/29 07:47:02;;;;;;;9.50;8.50;;;;;;;20.63;77.92;99987.77;131247;1253;107520;-81
2023/06/29 07:50:09;;;;;;;11.10;9.10;;;;;;;20.80;77.53;99993.55;131182;1253;108633;-81
2023/06/29 07:53:15;;;;;;;9.60;8.70;;;;;;;20.87;76.24;99991.02;131187;1253;107772;-81
2023/06/29 07:56:21;;;;;;;10.90;8.80;;;;;;;20.85;76.13;99988.89;131231;1251;107520;-81
2023/06/29 07:59:27;;;;;;;12.30;8.60;;;;;;;20.82;75.54;99988.80;131415;1253;107479;-80
2023/06/29 08:02:32;;;;;;;9.00;8.10;;;;;;;20.82;75.91;99986.79;131161;1253;107498;-81
2023/06/29 08:05:38;;;;;;;8.20;7.40;;;;;;;20.91;75.98;99980.77;131177;1251;107529;-81
2023/06/29 08:08:43;;;;;;;8.80;7.80;;;;;;;20.96;75.69;99979.95;131360;1253;108774;-81
2023/06/29 08:11:50;;;;;;;8.60;7.60;;;;;;;21.02;76.30;99972.77;131247;1253;107392;-81
2023/06/29 08:14:55;;;;;;;8.60;7.70;;;;;;;21.16;75.19;99975.27;131405;1253;107527;-81
2023/06/29 08:18:01;;;;;;;8.70;7.10;;;;;;;21.24;74.13;99971.19;131454;1253;107351;-81
2023/06/29 08:21:07;;;;;;;6.90;6.30;;;;;;;21.27;74.22;99968.19;131287;1251;107631;-81
2023/06/29 08:24:12;;;;;;;6.20;5.60;;;;;;;21.32;73.84;99965.61;131130;1251;107582;-81
2023/06/29 08:27:19;;;;;;;8.40;6.40;;;;;;;21.44;74.42;99971.42;131223;1250;108130;-81
2023/06/29 08:30:25;;;;;;;8.50;6.70;;;;;;;21.56;73.18;99970.20;131395;1253;107421;-81
2023/06/29 08:33:30;;;;;;;6.60;5.90;;;;;;;21.49;71.14;99968.05;131445;1253;107457;-81
2023/06/29 08:36:36;;;;;;;7.70;5.70;;;;;;;21.47;72.11;99967.55;131403;1253;107520;-81
2023/06/29 08:39:42;;;;;;;7.20;6.50;;;;;;;21.58;71.52;99970.22;131201;1253;107690;-81
2023/06/29 08:42:48;;;;;;;6.20;5.50;;;;;;;21.57;71.39;99977.25;131277;1253;107532;-81
2023/06/29 08:45:54;;;;;;;6.70;5.50;;;;;;;21.62;72.64;99973.41;131500;1253;107513;-81
2023/06/29 08:49:01;;;;;;;6.00;5.40;;;;;;;21.78;72.94;99967.83;131335;1253;107546;-81
2023/06/29 08:52:12;;;;;;;7.20;5.40;;;;;;;21.90;71.43;99969.05;131196;1254;108638;-81
2023/06/29 08:55:18;;;;;;;5.30;4.80;;;;;;;21.82;67.90;99970.21;131190;1253;107510;-81
2023/06/29 08:58:24;;;;;;;10.60;6.20;;;;;;;21.77;68.65;99970.90;131518;1249;107898;-82
2023/06/29 09:01:31;;;;;;;6.30;5.70;;;;;;;21.75;67.26;99972.34;131299;1252;107493;-81
2023/06/29 09:04:37;;;;;;;6.70;4.80;;;;;;;21.77;68.88;99967.38;131224;1253;107396;-81
2023/06/29 09:07:43;;;;;;;7.50;5.10;;;;;;;21.90;69.52;99965.23;131183;1253;108401;-81
2023/06/29 09:10:48;;;;;;;8.30;4.90;;;;;;;21.95;67.03;99965.23;131171;1249;106722;-81
2023/06/29 09:13:54;;;;;;;5.90;4.90;;;;;;;22.03;66.66;99964.13;131283;1250;108108;-81
2023/06/29 09:17:02;;;;;;;4.50;4.10;;;;;;;22.12;67.46;99964.51;131194;1253;107579;-82
2023/06/29 09:20:15;;;;;;;5.50;4.60;;;;;;;22.28;66.68;99965.29;131196;1253;107563;-81
2023/06/29 09:23:21;;;;;;;4.30;3.90;;;;;;;22.24;61.52;99969.70;131454;1253;107501;-81
2023/06/29 09:26:28;;;;;;;5.70;4.40;;;;;;;22.21;63.36;99967.82;131490;1251;107526;-82
2023/06/29 09:29:38;;;;;;;6.60;4.80;;;;;;;22.29;64.92;99966.34;131246;1251;107491;-81
2023/06/29 09:32:44;;;;;;;6.80;5.30;;;;;;;22.35;63.07;99967.23;131520;1253;107728;-81
2023/06/29 09:35:51;;;;;;;6.40;4.70;;;;;;;22.39;63.87;99955.73;131218;1250;106036;-81
2023/06/29 09:38:58;;;;;;;5.00;4.50;;;;;;;22.57;65.40;99959.62;131103;1250;107461;-81
2023/06/29 09:42:05;;;;;;;4.50;4.10;;;;;;;22.66;64.59;99953.17;131358;1253;107416;-81
2023/06/29 09:45:14;;;;;;;5.00;4.50;;;;;;;22.80;65.15;99949.16;131568;1253;107549;-79
2023/06/29 09:48:23;;;;;;;6.00;3.80;;;;;;;22.88;62.08;99956.27;131243;1253;107625;-81
2023/06/29 09:51:28;;;;;;;4.20;3.80;;;;;;;22.91;63.18;99955.19;131518;1250;107367;-81
2023/06/29 09:54:37;;;;;;;4.90;4.40;;;;;;;23.02;61.30;99960.00;131368;1251;107970;-80
2023/06/29 09:57:45;;;;;;;4.90;4.40;;;;;;;23.04;60.48;99956.23;131363;1253;107437;-81
2023/06/29 10:00:50;;;;;;;5.00;4.50;;;;;;;23.11;61.36;99952.36;131479;1250;107584;-81
2023/06/29 10:03:57;;;;;;;7.00;4.40;;;;;;;23.33;62.11;99950.50;131242;1253;107522;-82
2023/06/29 10:07:09;;;;;;;5.00;4.50;;;;;;;23.40;60.85;99946.17;131600;1250;107645;-80
2023/06/29 10:10:18;;;;;;;4.70;4.20;;;;;;;23.44;61.51;99945.09;131106;1251;107239;-80
2023/06/29 10:13:24;;;;;;;5.00;4.30;;;;;;;23.37;58.73;99949.39;131239;1253;107566;-80
2023/06/29 10:16:33;;;;;;;5.20;4.60;;;;;;;23.33;60.19;99948.41;131146;1251;107410;-80
2023/06/29 10:19:41;;;;;;;4.70;4.30;;;;;;;23.37;60.62;99946.18;131286;1253;107447;-82
2023/06/29 10:22:48;;;;;;;6.60;4.80;;;;;;;23.41;58.90;99942.27;131411;1253;107426;-82
2023/06/29 10:25:55;;;;;;;5.40;4.50;;;;;;;23.30;59.24;99951.83;131302;1253;107572;-80
2023/06/29 10:29:00;;;;;;;5.10;4.60;;;;;;;23.35;57.58;99944.17;131371;1256;107356;-81
2023/06/29 10:32:08;;;;;;;7.70;4.50;;;;;;;23.48;60.65;99932.46;131208;1249;107494;-81
2023/06/29 10:35:14;;;;;;;5.90;4.60;;;;;;;23.73;60.81;99931.10;131214;1253;107537;-80
2023/06/29 10:38:19;;;;;;;5.10;4.60;;;;;;;23.80;58.37;99931.48;131266;1253;107516;-81
2023/06/29 10:41:28;;;;;;;7.10;4.90;;;;;;;23.70;58.90;99928.44;131356;1248;108144;-80
2023/06/29 10:44:39;;;;;;;5.50;4.90;;;;;;;23.85;58.66;99934.48;131355;1251;107643;-81
2023/06/29 10:47:45;;;;;;;8.10;4.60;;;;;;;24.02;58.68;99926.13;131290;1253;107543;-81
2023/06/29 10:50:52;;;;;;;5.00;4.30;;;;;;;24.22;57.30;99934.86;131427;1253;107521;-81
2023/06/29 10:53:58;;;;;;;4.60;4.10;;;;;;;24.14;57.77;99927.56;131247;1251;108683;-81
2023/06/29 10:57:08;;;;;;;4.80;4.30;;;;;;;24.35;57.87;99918.95;131245;1253;107561;-81
2023/06/29 11:00:15;;;;;;;5.00;4.00;;;;;;;24.43;57.02;99920.86;131203;1253;107427;-81
2023/06/29 11:03:22;;;;;;;5.00;3.80;;;;;;;24.36;55.46;99921.58;131202;1253;107489;-81
2023/06/29 11:06:33;;;;;;;4.10;3.70;;;;;;;24.50;56.18;99913.48;131162;1252;107426;-81
2023/06/29 11:09:39;;;;;;;4.60;3.60;;;;;;;24.73;55.15;99905.15;131173;1253;107629;-81
2023/06/29 11:12:44;;;;;;;5.60;3.70;;;;;;;24.81;55.33;99906.39;131207;1253;107361;-80
2023/06/29 11:15:56;;;;;;;5.40;3.80;;;;;;;24.76;56.45;99901.85;131519;1251;106704;-81
2023/06/29 11:19:04;;;;;;;3.70;3.10;;;;;;;24.77;56.61;99898.65;131484;1254;107382;-81
2023/06/29 11:22:09;;;;;;;5.60;3.50;;;;;;;24.96;55.63;99897.88;131441;1253;107479;-81
2023/06/29 11:25:16;;;;;;;6.20;3.70;;;;;;;24.85;52.68;99902.00;131398;1253;107663;-81
2023/06/29 11:28:22;;;;;;;3.60;3.30;;;;;;;24.72;55.25;99894.17;131530;1250;107416;-81
2023/06/29 11:31:27;;;;;;;4.60;3.60;;;;;;;25.02;55.30;99891.23;131206;1253;107436;-81
2023/06/29 11:34:33;;;;;;;3.90;3.30;;;;;;;25.28;55.17;99892.37;131231;1253;107516;-81
2023/06/29 11:37:41;;;;;;;7.10;3.50;;;;;;;25.19;52.74;99890.36;131094;1253;107931;-81
2023/06/29 11:40:46;;;;;;;5.50;3.70;;;;;;;24.95;52.86;99891.70;131200;1260;106525;-81
2023/06/29 11:43:54;;;;;;;5.90;3.30;;;;;;;24.82;51.47;99894.78;131543;1253;107471;-81
2023/06/29 11:46:59;;;;;;;3.60;3.30;;;;;;;24.93;53.81;99883.21;131195;1253;107500;-81
2023/06/29 11:50:07;;;;;;;4.70;3.30;;;;;;;25.28;53.74;99873.50;131197;1251;107177;-81
2023/06/29 11:53:13;;;;;;;4.10;2.90;;;;;;;25.61;54.15;99873.52;131176;1254;108612;-81
2023/06/29 11:56:28;;;;;;;3.60;3.20;;;;;;;25.79;52.54;99871.23;131169;1250;107373;-81
2023/06/29 11:59:35;;;;;;;3.30;2.70;;;;;;;25.71;53.04;99869.16;131278;1253;107363;-81
2023/06/29 12:02:42;;;;;;;4.50;2.90;;;;;;;25.67;51.09;99868.27;131249;1251;107243;-82
2023/06/29 12:05:48;;;;;;;4.50;2.90;;;;;;;25.56;51.12;99862.73;131238;1250;107350;-82
2023/06/29 12:08:54;;;;;;;3.40;3.00;;;;;;;25.54;50.76;99861.44;131464;1253;107477;-81
2023/06/29 12:12:02;;;;;;;4.80;2.70;;;;;;;25.42;48.68;99869.11;131388;1253;107570;-81
2023/06/29 12:15:18;;;;;;;3.80;2.90;;;;;;;25.44;50.41;99856.98;131569;1251;107346;-81
2023/06/29 12:18:27;;;;;;;5.30;3.00;;;;;;;25.57;50.68;99857.48;131320;1253;107476;-81
2023/06/29 12:21:36;;;;;;;3.40;2.60;;;;;;;25.46;50.03;99856.79;131218;1253;107348;-81
2023/06/29 12:24:41;;;;;;;5.80;3.00;;;;;;;25.50;50.86;99848.59;131485;1255;107410;-80
2023/06/29 12:27:48;;;;;;;3.60;2.50;;;;;;;25.61;48.42;99853.91;131523;1253;107497;-81
2023/06/29 12:30:54;;;;;;;4.50;2.80;;;;;;;25.65;48.42;99847.70;131350;1252;107542;-80
2023/06/29 12:33:59;;;;;;;3.20;2.80;;;;;;;25.45;49.75;99846.69;131253;1253;107495;-81
2023/06/29 12:37:05;;;;;;;3.00;2.40;;;;;;;25.26;49.36;99846.15;131115;1253;107497;-81
2023/06/29 12:40:13;;;;;;;4.90;2.70;;;;;;;25.28;50.52;99842.45;131144;1253;158704;-81
2023/06/29 12:43:18;;;;;;;2.70;2.40;;;;;;;25.43;47.15;99839.50;131175;1250;107337;-82
2023/06/29 12:46:27;;;;;;;3.10;2.80;;;;;;;25.47;48.56;99838.33;131359;1251;107485;-81
2023/06/29 12:49:32;;;;;;;6.10;2.80;;;;;;;25.36;49.24;99840.83;131348;1254;107487;-82
2023/06/29 12:52:38;;;;;;;4.00;2.50;;;;;;;25.41;48.37;99838.51;131299;1253;107557;-78
2023/06/29 12:55:43;;;;;;;4.30;2.50;;;;;;;25.52;47.63;99834.23;131279;1250;108639;-80
2023/06/29 12:58:49;;;;;;;3.30;2.40;;;;;;;25.59;47.09;99827.83;131489;1250;107248;-81
2023/06/29 13:01:54;;;;;;;3.00;2.50;;;;;;;25.60;48.42;99826.19;131485;1253;107399;-80
2023/06/29 13:05:00;;;;;;;3.00;2.60;;;;;;;25.44;47.79;99828.27;131315;1253;106854;-80
2023/06/29 13:08:06;;;;;;;7.10;2.90;;;;;;;25.34;48.19;99827.54;131141;1251;107228;-80
2023/06/29 13:11:12;;;;;;;6.90;3.20;;;;;;;25.41;48.82;99821.42;131357;1249;107233;-80
2023/06/29 13:14:18;;;;;;;3.40;2.80;;;;;;;25.54;48.38;99815.71;131439;1253;107430;-80
2023/06/29 13:17:23;;;;;;;3.50;2.80;;;;;;;25.58;47.22;99821.42;131111;1253;107364;-80
2023/06/29 13:20:29;;;;;;;3.10;2.70;;;;;;;25.61;47.65;99822.70;131206;1253;107614;-82
2023/06/29 13:23:34;;;;;;;4.10;2.70;;;;;;;25.58;46.07;99815.96;131351;1253;107351;-82
2023/06/29 13:26:40;;;;;;;4.80;3.00;;;;;;;25.53;46.93;99813.96;131509;1253;107607;-80
2023/06/29 13:29:45;;;;;;;2.90;2.40;;;;;;;25.38;46.47;99816.70;131316;1253;107556;-82
2023/06/29 13:32:51;;;;;;;4.30;2.60;;;;;;;25.30;47.63;99809.04;131520;1253;107563;-81
2023/06/29 13:35:56;;;;;;;3.30;2.40;;;;;;;25.39;48.09;99807.73;131437;1253;107520;-79
2023/06/29 13:39:02;;;;;;;3.20;2.40;;;;;;;25.46;46.55;99809.16;131211;1253;107559;-80
2023/06/29 13:42:11;;;;;;;5.00;2.40;;;;;;;25.53;47.53;99807.40;131407;1252;107229;-80
2023/06/29 13:45:17;;;;;;;3.90;2.60;;;;;;;25.66;46.95;99808.02;131317;1253;107228;-80
2023/06/29 13:48:23;;;;;;;3.20;2.40;;;;;;;25.66;43.85;99814.15;131400;1253;107291;-79
2023/06/29 13:51:31;;;;;;;3.40;2.40;;;;;;;25.70;45.52;99805.92;131308;1252;107598;-79
2023/06/29 13:54:36;;;;;;;2.50;2.30;;;;;;;25.76;44.15;99805.52;131103;1254;107595;-82
2023/06/29 13:57:42;;;;;;;2.70;2.20;;;;;;;25.74;44.36;99801.63;131196;1253;107612;-79
2023/06/29 14:00:47;;;;;;;2.60;2.30;;;;;;;25.85;46.25;99797.32;131245;1253;107554;-80
2023/06/29 14:03:53;;;;;;;2.70;2.30;;;;;;;25.94;45.76;99796.90;131184;1253;107539;-80
2023/06/29 14:06:58;;;;;;;2.50;2.30;;;;;;;25.96;45.46;99790.73;131181;1251;107478;-80
2023/06/29 14:10:04;;;;;;;3.40;2.30;;;;;;;26.05;46.45;99787.92;131018;1251;107215;-80